• Join FlightAware (Why Join?)
  • Login
  • US Flag 
Rudolph Flight #1: Arrived! 
02:35AM EST


 

Airport Tracker/Info


-or-


 

Live Flight TrackerFlight Track Log ✈ PCH458 ✈ 23-Jan-2014 ✈ CYQT - KBJC

Flight Track Log - Related Links

Times and Time Zones

All times are in EST time to prevent confusion due to time zone crossing. See the PCH458 flight status page for this flight to view local times or setup timezone preferences in your user account.

Time Position Orientation Groundspeed Altitude Reporting Facility
EST Latitude Longitude Course Direction KTS MPH feet Rate Location/Type
08:38AM 48.3500 -89.2833 240° Southwest 100 115 1,300  Level Winnipeg Center
08:39AM 48.3333 -89.3667 253° West 150 173 3,300 2,100 Climbing Winnipeg Center
08:40AM 48.3167 -89.4000 233° Southwest 130 150 5,500 2,040 Climbing Winnipeg Center
08:41AM 48.2833 -89.4500 225° Southwest 140 161 7,400 1,800 Climbing Winnipeg Center
08:42AM 48.2667 -89.5000 243° Southwest 150 173 9,200 1,740 Climbing Winnipeg Center
08:43AM 48.0485 -90.0539 240° Southwest  Level FlightAware Approximate
08:43AM 48.2500 -89.5500 243° Southwest 150 173 10,900  Level Winnipeg Center
08:44AM 48.2333 -89.6000 243° Southwest 160 184 12,700 1,620 Climbing Winnipeg Center
08:45AM 48.2000 -89.6833 239° Southwest 170 196 14,200 1,620 Climbing Winnipeg Center
08:46AM 48.1667 -89.7500 233° Southwest 180 207 16,000 1,800 Climbing Winnipeg Center
08:47AM 48.1500 -89.8167 249° West 200 230 17,800 1,500 Climbing Winnipeg Center
08:48AM 48.1167 -89.8833 233° Southwest 200 230 19,000 1,500 Climbing Winnipeg Center
08:49AM 48.0833 -89.9500 233° Southwest 210 242 20,800 1,620 Climbing Winnipeg Center
08:50AM 48.0500 -90.0333 239° Southwest 210 242 22,300 1,320 Climbing Winnipeg Center
08:51AM 48.0425 -90.1314 264° West 215 247 23,400 840 Climbing Minneapolis Center
08:52AM 48.0072 -90.2128 237° Southwest 227 261 24,000 240 Climbing Minneapolis Center
08:53AM 47.9658 -90.3089 237° Southwest 258 297 24,000  Level Minneapolis Center
08:54AM 47.9197 -90.4156 237° Southwest 287 330 24,000  Level Minneapolis Center
08:55AM 47.8728 -90.5228 237° Southwest 303 349 24,000  Level Minneapolis Center
08:56AM 47.8269 -90.6308 238° Southwest 308 354 24,000  Level Minneapolis Center
08:57AM 47.7781 -90.7389 236° Southwest 313 360 24,000  Level Minneapolis Center
08:58AM 47.7306 -90.8494 237° Southwest 316 364 24,000  Level Minneapolis Center
08:59AM 47.6822 -90.9589 237° Southwest 317 365 24,000  Level Minneapolis Center
09:00AM 47.6231 -91.0911 236° Southwest 319 367 24,000  Level Minneapolis Center
09:01AM 47.5733 -91.2003 236° Southwest 321 369 24,000  Level Minneapolis Center
09:02AM 47.5244 -91.3119 237° Southwest 323 372 24,000  Level Minneapolis Center
09:03AM 47.4747 -91.4217 236° Southwest 323 372 24,000  Level Minneapolis Center
09:04AM 47.4250 -91.5336 237° Southwest 325 374 24,000  Level Minneapolis Center
09:05AM 47.3744 -91.6450 236° Southwest 326 375 24,000  Level Minneapolis Center
09:06AM 47.3244 -91.7564 237° Southwest 326 375 24,000  Level Minneapolis Center
09:07AM 47.2728 -91.8669 235° Southwest 327 376 24,000  Level Minneapolis Center
09:08AM 47.2111 -92.0008 236° Southwest 328 377 24,000  Level Minneapolis Center
09:09AM 47.1592 -92.1133 236° Southwest 332 382 24,000  Level Minneapolis Center
09:10AM 47.1072 -92.2261 236° Southwest 332 382 24,000  Level Minneapolis Center
09:11AM 47.0556 -92.3372 236° Southwest 331 381 24,000  Level Minneapolis Center
09:12AM 47.0039 -92.4489 236° Southwest 330 380 24,000  Level Minneapolis Center
09:13AM 46.9517 -92.5622 236° Southwest 332 382 24,000  Level Minneapolis Center
09:14AM 46.9000 -92.6728 236° Southwest 331 381 24,000  Level Minneapolis Center
09:15AM 46.8472 -92.7825 235° Southwest 330 380 24,000  Level Minneapolis Center
09:16AM 46.7958 -92.8928 236° Southwest 329 379 24,000  Level Minneapolis Center
09:17AM 46.7333 -93.0244 235° Southwest 328 377 24,000  Level Minneapolis Center
09:19AM 46.6817 -93.1336 235° Southwest 328 377 24,000  Level Minneapolis Center
09:20AM 46.6286 -93.2411 234° Southwest 327 376 24,000  Level Minneapolis Center
09:21AM 46.5758 -93.3522 235° Southwest 332 382 24,000  Level Minneapolis Center
09:22AM 46.5231 -93.4614 235° Southwest 331 381 24,000  Level Minneapolis Center
09:23AM 46.4700 -93.5706 235° Southwest 331 381 24,000  Level Minneapolis Center
09:24AM 46.4175 -93.6808 235° Southwest 332 382 24,000  Level Minneapolis Center
09:25AM 46.3633 -93.7903 234° Southwest 333 383 24,000  Level Minneapolis Center
09:26AM 46.2986 -93.9211 234° Southwest 333 383 24,000  Level Minneapolis Center
09:27AM 46.2450 -94.0314 235° Southwest 335 386 24,000  Level Minneapolis Center
09:28AM 46.1950 -94.1328 235° Southwest 332 382 24,000  Level Minneapolis Center
09:29AM 46.1406 -94.2403 234° Southwest 332 382 24,000  Level Minneapolis Center
09:30AM 46.0861 -94.3483 234° Southwest 333 383 24,000  Level Minneapolis Center
09:31AM 46.0217 -94.4781 234° Southwest 334 384 24,000  Level Minneapolis Center
09:32AM 45.9681 -94.5850 234° Southwest 332 382 24,000  Level Minneapolis Center
09:33AM 45.9136 -94.6917 234° Southwest 332 382 24,000  Level Minneapolis Center
09:34AM 45.8594 -94.7992 234° Southwest 332 382 24,000  Level Minneapolis Center
09:35AM 45.8047 -94.9067 234° Southwest 333 383 24,000  Level Minneapolis Center
09:36AM 45.7500 -95.0136 234° Southwest 334 384 24,000  Level Minneapolis Center
09:37AM 45.6931 -95.1269 234° Southwest 332 382 24,000  Level Minneapolis Center
09:38AM 45.6389 -95.2311 233° Southwest 328 377 24,000  Level Minneapolis Center
09:39AM 45.5739 -95.3567 234° Southwest 329 379 24,000  Level Minneapolis Center
09:40AM 45.5203 -95.4608 234° Southwest 327 376 24,000  Level Minneapolis Center
09:41AM 45.4661 -95.5636 233° Southwest 325 374 24,000  Level Minneapolis Center
09:42AM 45.4122 -95.6664 233° Southwest 325 374 24,000  Level Minneapolis Center
09:43AM 45.3597 -95.7694 234° Southwest 323 372 24,000  Level Minneapolis Center
09:44AM 45.3067 -95.8689 233° Southwest 321 369 24,000  Level Minneapolis Center
09:45AM 45.2539 -95.9711 234° Southwest 322 371 24,000  Level Minneapolis Center
09:46AM 45.1883 -96.0928 233° Southwest 323 372 24,000  Level Minneapolis Center
09:47AM 45.1331 -96.1961 233° Southwest 329 379 24,000  Level Minneapolis Center
09:48AM 45.0786 -96.2986 233° Southwest 327 376 24,000  Level Minneapolis Center
09:49AM 45.0228 -96.4028 233° Southwest 333 383 24,000  Level Minneapolis Center
09:50AM 44.9664 -96.5058 232° Southwest 333 383 24,000  Level Minneapolis Center
09:51AM 44.9111 -96.6097 233° Southwest 334 384 24,000  Level Minneapolis Center
09:52AM 44.8431 -96.7339 232° Southwest 335 386 24,000  Level Minneapolis Center
09:53AM 44.7872 -96.8369 233° Southwest 334 384 24,000  Level Minneapolis Center
09:54AM 44.7317 -96.9403 233° Southwest 333 383 24,000  Level Minneapolis Center
09:55AM 44.6750 -97.0425 232° Southwest 334 384 24,000  Level Minneapolis Center
09:57AM 44.6183 -97.1450 232° Southwest 334 384 24,000  Level Minneapolis Center
09:58AM 44.5622 -97.2469 232° Southwest 333 383 24,000  Level Minneapolis Center
09:59AM 44.5053 -97.3483 232° Southwest 332 382 24,000  Level Minneapolis Center
10:00AM 44.4375 -97.4703 232° Southwest 333 383 24,000  Level Minneapolis Center
10:01AM 44.3817 -97.5725 233° Southwest 332 382 24,000  Level Minneapolis Center
10:02AM 44.3239 -97.6731 231° Southwest 333 383 24,000  Level Minneapolis Center
10:03AM 44.2669 -97.7744 232° Southwest 333 383 24,000  Level Minneapolis Center
10:04AM 44.2103 -97.8744 232° Southwest 330 380 24,000  Level Minneapolis Center
10:05AM 44.1542 -97.9753 232° Southwest 331 381 24,000  Level Minneapolis Center
10:06AM 44.0964 -98.0750 231° Southwest 331 381 24,000  Level Minneapolis Center
10:07AM 44.0297 -98.1953 232° Southwest 329 379 24,000  Level Minneapolis Center
10:08AM 43.9711 -98.2942 231° Southwest 332 382 24,000  Level Minneapolis Center
10:09AM 43.9136 -98.3925 231° Southwest 330 380 24,000  Level Minneapolis Center
10:10AM 43.8578 -98.4908 232° Southwest 327 376 24,000  Level Minneapolis Center
10:11AM 43.8008 -98.5903 232° Southwest 328 377 24,000  Level Minneapolis Center
10:12AM 43.7481 -98.6833 232° Southwest 328 377 24,000  Level Minneapolis Center
10:13AM 43.6792 -98.8014 231° Southwest 328 377 24,000  Level Minneapolis Center
10:14AM 43.6217 -98.8969 230° Southwest 325 374 24,000  Level Minneapolis Center
10:15AM 43.5658 -98.9944 232° Southwest 324 373 24,000  Level Minneapolis Center
10:16AM 43.5081 -99.0914 231° Southwest 326 375 24,000  Level Minneapolis Center
10:17AM 43.4508 -99.1900 231° Southwest 328 377 24,000  Level Minneapolis Center
10:18AM 43.3931 -99.2850 230° Southwest 325 374 24,000  Level Minneapolis Center
10:19AM 43.3361 -99.3808 231° Southwest 324 373 24,000  Level Minneapolis Center
10:20AM 43.2794 -99.4772 231° Southwest 325 374 24,000  Level Minneapolis Center
10:21AM 43.2106 -99.5922 231° Southwest 325 374 24,000  Level Minneapolis Center
10:22AM 43.1539 -99.6872 231° Southwest 323 372 24,000  Level Minneapolis Center
10:23AM 43.0967 -99.7811 230° Southwest 322 371 24,000  Level Minneapolis Center
10:24AM 43.0394 -99.8772 231° Southwest 324 373 24,000  Level Minneapolis Center
10:25AM 42.9822 -99.9694 230° Southwest 322 371 24,000  Level Minneapolis Center
10:26AM 42.9253 -100.0628 230° Southwest 321 369 24,000  Level Minneapolis Center
10:27AM 42.8678 -100.1567 230° Southwest 321 369 24,000  Level Minneapolis Center
10:28AM 42.8103 -100.2500 230° Southwest 322 371 24,000  Level Minneapolis Center
10:29AM 42.7494 -100.3511 231° Southwest 320 368 24,000  Level Minneapolis Center
10:30AM 42.6922 -100.4439 230° Southwest 320 368 24,000  Level Minneapolis Center
10:31AM 42.6350 -100.5367 230° Southwest 321 369 24,000  Level Minneapolis Center
10:32AM 42.5656 -100.6483 230° Southwest 321 369 24,000  Level Minneapolis Center
10:33AM 42.5083 -100.7392 230° Southwest 320 368 24,000  Level Minneapolis Center
10:34AM 42.4867 -100.7736 230° Southwest 319 367 24,000  Level Denver Center
10:35AM 42.4144 -100.8903 230° Southwest 317 365 24,000  Level Denver Center
10:36AM 42.3594 -100.9767 229° Southwest 317 365 24,000  Level Denver Center
10:37AM 42.2961 -101.0783 230° Southwest 317 365 24,000  Level Denver Center
10:38AM 42.2425 -101.1631 229° Southwest 313 360 24,000  Level Denver Center
10:39AM 42.1794 -101.2619 229° Southwest 311 358 24,000  Level Denver Center
10:40AM 42.1256 -101.3464 229° Southwest 312 359 24,000  Level Denver Center
10:41AM 42.0814 -101.4172 230° Southwest 311 358 24,000  Level Denver Center
10:42AM 42.0089 -101.5300 229° Southwest 312 359 24,000  Level Denver Center
10:43AM 41.9467 -101.6272 229° Southwest 308 354 24,000  Level Denver Center
10:44AM 41.8922 -101.7111 229° Southwest 310 357 24,000  Level Denver Center
10:45AM 41.8383 -101.7944 229° Southwest 310 357 24,000  Level Denver Center
10:46AM 41.7764 -101.8906 229° Southwest 307 353 24,000  Level Denver Center
10:48AM 41.7217 -101.9747 229° Southwest 312 359 24,000  Level Denver Center
10:49AM 41.6611 -102.0686 229° Southwest 302 348 24,000  Level Denver Center
10:50AM 41.6067 -102.1506 228° Southwest 305 351 24,000  Level Denver Center
10:51AM 41.5439 -102.2456 229° Southwest 307 353 24,000  Level Denver Center
10:52AM 41.4911 -102.3272 229° Southwest 304 350 24,000  Level Denver Center
10:53AM 41.4275 -102.4219 228° Southwest 307 353 24,000  Level Denver Center
10:54AM 41.3756 -102.5028 229° Southwest 302 348 24,000  Level Denver Center
10:55AM 41.3117 -102.5975 228° Southwest 307 353 24,000  Level Denver Center
10:56AM 41.2547 -102.6836 229° Southwest 302 348 24,000  Level Denver Center
10:57AM 41.1972 -102.7714 229° Southwest 302 348 24,000  Level Denver Center
10:58AM 41.1417 -102.8517 227° Southwest 307 353 24,000  Level Denver Center
10:59AM 41.0806 -102.9447 229° Southwest 300 345 24,000  Level Denver Center
11:00AM 41.0228 -103.0303 228° Southwest 301 346 24,000 -300 Level Denver Center
11:01AM 40.9686 -103.1092 228° Southwest 302 348 23,400 -900 Descending Denver Center
11:02AM 40.9142 -103.1900 228° Southwest 300 345 22,200 -1,200 Descending Denver Center
11:03AM 40.8597 -103.2708 228° Southwest 295 339 21,000 -1,200 Descending Denver Center
11:04AM 40.7958 -103.3656 228° Southwest 289 333 19,600 -1,260 Descending Denver Center
11:05AM 40.7311 -103.4592 228° Southwest 288 331 18,200 -1,020 Descending Denver Center
11:06AM 40.6792 -103.5378 229° Southwest 285 328 17,500 -840 Descending Denver Center
11:08AM 40.6267 -103.6139 228° Southwest 282 325 16,400 -1,260 Descending Denver Center
11:09AM 40.5653 -103.7019 227° Southwest 272 313 14,700 -1,440 Descending Denver Center
11:10AM 40.5142 -103.7736 227° Southwest 270 311 13,400 -1,260 Descending Denver Center
11:11AM 40.4586 -103.8572 229° Southwest 256 295 12,200 -1,080 Descending Denver Center
11:12AM 40.4356 -103.9378 249° West 238 274 11,200 -1,020 Descending Denver Center
11:13AM 40.4189 -104.0156 254° West 225 259 10,200 -600 Descending Denver Center
11:14AM 40.3972 -104.1019 252° West 232 267 10,000 -120 Descending Denver Center
11:15AM 40.3783 -104.1808 253° West 229 264 10,000  Level Denver Center
11:16AM 40.3583 -104.2658 253° West 228 262 10,000 -300 Level Denver Center
11:17AM 40.3419 -104.3325 252° West 228 262 9,400 -540 Descending Denver Center
11:18AM 40.3217 -104.4231 254° West 214 246 9,000 -240 Descending Denver Center
11:19AM 40.3033 -104.4969 252° West 213 245 9,000  Level Denver Center
11:20AM 40.2814 -104.5794 251° West 222 255 9,000  Level Denver Center
11:21AM 40.2464 -104.6500 237° Southwest 232 267 9,000  Level Denver Center
11:22AM 40.2061 -104.7236 234° Southwest 232 267 9,000  Level Denver Center
11:23AM 40.1689 -104.7917 234° Southwest 232 267 9,000  Level Denver Center
11:24AM 40.1292 -104.8653 235° Southwest 231 266 9,000  Level Denver Center
11:25AM 40.0931 -104.9333 235° Southwest 229 264 9,000 -120 Level Denver Center
11:26AM 40.0564 -105.0081 237° Southwest 227 261 8,800 -540 Descending Denver Center
11:27AM 40.0256 -105.0681 236° Southwest 205 236 8,000 -600 Descending Denver Center
11:28AM 39.9806 -105.0353 151° Southeast 198 228 7,600 -540 Descending Denver Center
11:29AM 39.9386 -104.9900 140° Southeast 198 228 7,000 -300 Descending Denver Center
11:30AM 39.8983 -104.9419 138° Southeast 197 227 7,000  Level Denver Center
11:31AM 39.8525 -104.9036 147° Southeast 187 215 7,000  Level Denver Center
11:32AM 39.8183 -104.9419 221° Southwest 174 200 7,000  Level Denver Center
11:33AM 39.8447 -104.9917 305° West 152 175 7,000 -60 Level Denver Center
11:34AM 39.8656 -105.0358 302° West 145 167 6,900 -420 Descending Denver Center
11:35AM 39.8842 -105.0692 306° West 106 122 6,200 -600 Descending Denver Center
11:37AM 39.8992 -105.0972 305° West 96 110 5,700 -540 Descending Denver Center